createdAt,value
2022-11-27T00:01:24.814Z,101463.00
2022-11-27T00:04:06.330Z,101418.00
2022-11-27T00:06:44.848Z,101388.00
2022-11-27T00:09:27.052Z,101355.00
2022-11-27T00:12:13.480Z,101385.00
2022-11-27T00:15:01.882Z,101370.00
2022-11-27T00:18:08.845Z,101327.00
2022-11-27T00:21:10.390Z,101321.00
2022-11-27T00:24:18.528Z,101381.00
2022-11-27T00:27:04.632Z,101342.00
2022-11-27T00:32:41.744Z,101328.00
2022-11-27T00:39:02.361Z,101329.00
2022-11-27T00:41:52.527Z,101346.00
2022-11-27T00:44:32.512Z,101316.00
2022-11-27T00:47:34.776Z,101325.00
2022-11-27T00:50:32.805Z,101310.00
2022-11-27T00:53:29.119Z,101377.00
2022-11-27T00:56:13.112Z,101328.00
2022-11-27T01:03:01.179Z,101381.00
2022-11-27T01:05:55.494Z,101330.00
2022-11-27T01:08:53.536Z,101336.00
2022-11-27T01:12:11.487Z,101362.00
2022-11-27T01:15:32.009Z,101400.00
2022-11-27T01:18:40.749Z,101313.00
2022-11-27T01:21:45.458Z,101326.00
2022-11-27T01:24:26.468Z,101320.00
2022-11-27T01:27:05.453Z,101381.00
2022-11-27T01:29:50.752Z,101367.00
2022-11-27T01:35:47.493Z,101309.00
2022-11-27T01:38:40.158Z,101380.00
2022-11-27T01:41:24.351Z,101367.00
2022-11-27T01:44:46.583Z,101335.00
2022-11-27T01:47:46.841Z,101316.00
2022-11-27T01:50:27.443Z,101363.00
2022-11-27T01:53:40.166Z,101365.00
2022-11-27T01:56:25.920Z,101345.00
2022-11-27T01:59:04.735Z,101332.00
2022-11-27T02:01:54.419Z,101319.00
2022-11-27T02:04:52.519Z,101244.00
2022-11-27T02:10:24.169Z,101268.00
2022-11-27T02:13:11.487Z,101263.00
2022-11-27T02:15:53.795Z,101262.00
2022-11-27T02:19:24.032Z,101316.00
2022-11-27T02:22:12.903Z,101297.00
2022-11-27T02:25:04.848Z,101305.00
2022-11-27T02:28:23.274Z,101301.00
2022-11-27T02:31:34.561Z,101276.00
2022-11-27T02:34:40.748Z,101294.00
2022-11-27T02:37:35.918Z,101232.00
2022-11-27T02:40:46.624Z,101237.00
2022-11-27T02:43:31.661Z,101252.00
2022-11-27T02:46:55.150Z,101223.00
2022-11-27T02:49:41.213Z,101237.00
2022-11-27T02:52:27.449Z,101229.00
2022-11-27T02:55:42.422Z,101282.00
2022-11-27T02:58:47.713Z,101217.00
2022-11-27T03:02:01.525Z,101270.00
2022-11-27T03:05:19.455Z,101255.00
2022-11-27T03:08:24.992Z,101248.00
2022-11-27T03:11:30.291Z,101220.00
2022-11-27T03:14:31.980Z,101261.00
2022-11-27T03:17:46.930Z,101267.00
2022-11-27T03:20:44.686Z,101251.00
2022-11-27T03:23:39.908Z,101170.00
2022-11-27T03:26:23.456Z,101216.00
2022-11-27T03:29:07.748Z,101227.00
2022-11-27T03:31:53.438Z,101205.00
2022-11-27T03:34:35.065Z,101187.00
2022-11-27T03:37:14.088Z,101203.00
2022-11-27T03:40:01.164Z,101180.00
2022-11-27T03:43:00.374Z,101195.00
2022-11-27T03:46:29.555Z,101136.00
2022-11-27T03:49:30.702Z,101221.00
2022-11-27T03:52:26.580Z,101160.00
2022-11-27T03:55:15.176Z,101171.00
2022-11-27T04:00:57.500Z,101250.00
2022-11-27T04:03:42.099Z,101198.00
2022-11-27T04:06:23.957Z,101237.00
2022-11-27T04:09:17.103Z,101213.00
2022-11-27T04:11:58.384Z,101216.00
2022-11-27T04:14:38.349Z,101222.00
2022-11-27T04:17:18.285Z,101186.00
2022-11-27T04:20:04.072Z,101154.00
2022-11-27T04:22:44.689Z,101185.00
2022-11-27T04:26:03.419Z,101196.00
2022-11-27T04:28:38.869Z,101167.00
2022-11-27T04:31:15.797Z,101148.00
2022-11-27T04:33:54.046Z,101177.00
2022-11-27T04:36:39.446Z,101177.00
2022-11-27T04:39:15.754Z,101137.00
2022-11-27T04:41:54.488Z,101115.00
2022-11-27T04:44:45.477Z,101090.00
2022-11-27T04:47:34.103Z,101164.00
2022-11-27T04:50:15.209Z,101138.00
2022-11-27T04:53:01.232Z,101092.00
2022-11-27T04:55:37.698Z,101072.00
2022-11-27T04:58:14.465Z,101142.00
2022-11-27T05:00:50.129Z,101127.00
2022-11-27T05:03:35.376Z,101056.00
2022-11-27T05:06:14.638Z,101058.00
2022-11-27T05:08:51.827Z,101113.00
2022-11-27T05:11:36.166Z,101137.00
2022-11-27T05:14:41.363Z,101106.00
2022-11-27T05:17:44.478Z,101136.00
2022-11-27T05:20:28.010Z,101106.00
2022-11-27T05:23:09.812Z,101077.00
2022-11-27T05:26:30.031Z,101094.00
2022-11-27T05:29:28.793Z,101120.00
2022-11-27T05:32:15.314Z,101016.00
2022-11-27T05:34:56.423Z,101073.00
2022-11-27T05:38:46.674Z,101090.00
2022-11-27T05:41:41.629Z,101047.00
2022-11-27T05:44:17.811Z,101106.00
2022-11-27T05:47:03.681Z,101003.00
2022-11-27T05:49:41.935Z,101095.00
2022-11-27T05:52:28.254Z,101054.00
2022-11-27T05:55:03.316Z,101086.00
2022-11-27T05:57:45.575Z,101082.00
2022-11-27T06:00:32.436Z,101085.00
2022-11-27T06:03:10.902Z,101088.00
2022-11-27T06:05:50.821Z,101093.00
2022-11-27T06:08:31.309Z,101081.00
2022-11-27T06:11:32.096Z,101002.00
2022-11-27T06:14:14.938Z,101085.00
2022-11-27T06:16:51.420Z,101081.00
2022-11-27T06:19:28.592Z,101001.00
2022-11-27T06:22:09.767Z,101032.00
2022-11-27T06:24:59.233Z,101004.00
2022-11-27T06:27:41.511Z,100992.00
2022-11-27T06:30:25.008Z,101064.00
2022-11-27T06:33:03.850Z,101064.00
2022-11-27T06:35:43.108Z,101020.00
2022-11-27T06:38:20.804Z,100987.00
2022-11-27T06:40:57.133Z,101024.00
2022-11-27T06:43:32.124Z,101052.00
2022-11-27T06:46:16.030Z,101045.00
2022-11-27T06:49:08.514Z,101006.00
2022-11-27T06:51:50.771Z,101005.00
2022-11-27T06:54:29.277Z,101078.00
2022-11-27T06:57:05.226Z,100981.00
2022-11-27T06:59:40.425Z,100993.00
2022-11-27T07:02:23.551Z,101052.00
2022-11-27T07:05:05.576Z,101047.00
2022-11-27T07:07:43.759Z,101037.00
2022-11-27T07:10:21.798Z,101062.00
2022-11-27T07:12:58.565Z,101038.00
2022-11-27T07:15:36.665Z,100992.00
2022-11-27T07:18:13.389Z,101048.00
2022-11-27T07:21:15.115Z,101031.00
2022-11-27T07:23:50.560Z,100997.00
2022-11-27T07:26:33.571Z,100978.00
2022-11-27T07:29:16.838Z,100957.00
2022-11-27T07:32:08.266Z,100975.00
2022-11-27T07:34:56.183Z,101058.00
2022-11-27T07:37:47.959Z,100975.00
2022-11-27T07:41:07.239Z,100921.00
2022-11-27T07:43:53.642Z,100998.00
2022-11-27T07:46:50.844Z,101030.00
2022-11-27T07:50:01.041Z,101009.00
2022-11-27T07:53:09.542Z,100954.00
2022-11-27T07:56:17.041Z,100940.00
2022-11-27T07:59:17.607Z,101005.00
2022-11-27T08:02:04.120Z,100960.00
2022-11-27T08:05:12.796Z,100988.00
2022-11-27T08:08:12.124Z,100991.00
2022-11-27T08:11:34.648Z,100924.00
2022-11-27T08:14:42.138Z,100918.00
2022-11-27T08:17:38.261Z,100926.00
2022-11-27T08:20:35.848Z,100909.00
2022-11-27T08:23:39.014Z,100908.00
2022-11-27T08:26:56.868Z,100933.00
2022-11-27T08:30:22.202Z,100872.00
2022-11-27T08:36:29.432Z,100940.00
2022-11-27T08:39:51.722Z,100884.00
2022-11-27T08:42:52.365Z,100937.00
2022-11-27T08:46:26.067Z,100944.00
2022-11-27T08:49:58.660Z,100891.00
2022-11-27T08:54:07.910Z,100945.00
2022-11-27T08:57:04.101Z,100918.00
2022-11-27T09:00:05.276Z,100945.00
2022-11-27T09:17:27.130Z,100977.00
2022-11-27T09:27:26.122Z,100905.00
2022-11-27T09:30:43.766Z,100889.00
2022-11-27T09:33:35.293Z,100891.00
2022-11-27T09:36:22.099Z,100891.00
2022-11-27T09:39:22.656Z,100928.00
2022-11-27T09:42:45.507Z,100884.00
2022-11-27T09:48:55.247Z,100905.00
2022-11-27T09:51:50.256Z,100867.00
2022-11-27T09:58:57.775Z,100875.00
2022-11-27T10:02:23.672Z,100922.00
2022-11-27T10:05:20.227Z,100896.00
2022-11-27T10:09:03.059Z,100922.00
2022-11-27T10:12:27.450Z,100915.00
2022-11-27T10:16:03.320Z,100907.00
2022-11-27T10:18:53.808Z,100882.00
2022-11-27T10:22:19.466Z,100924.00
2022-11-27T10:25:18.147Z,100923.00
2022-11-27T10:28:41.029Z,100899.00
2022-11-27T10:31:47.711Z,100922.00
2022-11-27T10:34:54.563Z,100835.00
2022-11-27T10:38:07.252Z,100913.00
2022-11-27T10:45:00.957Z,100839.00
2022-11-27T10:48:16.945Z,100856.00
2022-11-27T10:51:06.969Z,100908.00
2022-11-27T10:54:00.301Z,100851.00
2022-11-27T10:58:52.382Z,100828.00
2022-11-27T11:01:18.131Z,100818.00
2022-11-27T11:04:38.721Z,100879.00
2022-11-27T11:08:11.149Z,100784.00
2022-11-27T11:11:09.358Z,100884.00
2022-11-27T11:17:42.742Z,100819.00
2022-11-27T11:20:32.037Z,100792.00
2022-11-27T11:23:50.035Z,100790.00
2022-11-27T11:26:51.704Z,100832.00
2022-11-27T11:29:36.794Z,100797.00
2022-11-27T11:32:29.142Z,100795.00
2022-11-27T11:41:02.712Z,100832.00
2022-11-27T11:44:40.820Z,100742.00
2022-11-27T11:48:16.555Z,100786.00
2022-11-27T11:59:38.582Z,100750.00
2022-11-27T12:07:54.487Z,100761.00
2022-11-27T12:11:24.266Z,100703.00
2022-11-27T12:16:09.878Z,100731.00
2022-11-27T12:19:33.009Z,100678.00
2022-11-27T12:22:52.416Z,100660.00
2022-11-27T12:26:04.700Z,100677.00
2022-11-27T12:34:09.897Z,100598.00
2022-11-27T12:46:33.732Z,100617.00
2022-11-27T13:07:02.025Z,100669.00
2022-11-27T13:23:30.723Z,100632.00
2022-11-27T13:27:28.202Z,100635.00
2022-11-27T13:39:16.954Z,100612.00
2022-11-27T13:43:03.579Z,100518.00
2022-11-27T13:46:36.073Z,100565.00
2022-11-27T13:53:45.342Z,100566.00
2022-11-27T13:57:49.092Z,100507.00
2022-11-27T14:05:50.507Z,100593.00
2022-11-27T14:09:33.033Z,100542.00
2022-11-27T14:18:05.295Z,100545.00
2022-11-27T14:30:36.464Z,100567.00
2022-11-27T14:34:40.448Z,100597.00
2022-11-27T14:37:36.555Z,100616.00
2022-11-27T14:41:10.757Z,100598.00
2022-11-27T14:44:05.016Z,100599.00
2022-11-27T14:46:51.683Z,100570.00
2022-11-27T14:49:44.965Z,100560.00
2022-11-27T14:52:46.312Z,100554.00
2022-11-27T14:56:21.847Z,100542.00
2022-11-27T15:00:02.804Z,100596.00
2022-11-27T15:02:51.575Z,100591.00
2022-11-27T15:05:39.511Z,100491.00
2022-11-27T15:08:28.617Z,100598.00
2022-11-27T15:11:15.944Z,100547.00
2022-11-27T15:14:48.696Z,100520.00
2022-11-27T15:22:50.582Z,100574.00
2022-11-27T15:26:59.257Z,100551.00
2022-11-27T15:30:24.360Z,100508.00
2022-11-27T15:33:10.094Z,100490.00
2022-11-27T15:36:25.267Z,100457.00
2022-11-27T15:39:27.439Z,100496.00
2022-11-27T15:42:13.326Z,100478.00
2022-11-27T15:45:14.946Z,100501.00
2022-11-27T15:47:52.391Z,100511.00
2022-11-27T15:54:39.781Z,100435.00
2022-11-27T15:57:34.625Z,100516.00
2022-11-27T16:04:31.311Z,100443.00
2022-11-27T16:08:09.213Z,100467.00
2022-11-27T16:11:37.258Z,100521.00
2022-11-27T16:19:14.324Z,100439.00
2022-11-27T16:22:57.252Z,100404.00
2022-11-27T16:26:43.445Z,100436.00
2022-11-27T16:30:52.588Z,100449.00
2022-11-27T16:34:36.855Z,100414.00
2022-11-27T16:38:09.547Z,100382.00
2022-11-27T16:45:23.422Z,100454.00
2022-11-27T16:51:53.914Z,100430.00
2022-11-27T16:55:07.059Z,100400.00
2022-11-27T16:58:43.075Z,100414.00
2022-11-27T17:01:42.827Z,100361.00
2022-11-27T17:04:50.030Z,100405.00
2022-11-27T17:12:17.627Z,100365.00
2022-11-27T17:15:50.803Z,100384.00
2022-11-27T17:19:41.570Z,100342.00
2022-11-27T17:23:20.291Z,100380.00
2022-11-27T17:25:59.712Z,100371.00
2022-11-27T17:28:41.076Z,100297.00
2022-11-27T17:31:26.010Z,100364.00
2022-11-27T17:34:27.163Z,100332.00
2022-11-27T17:37:07.543Z,100272.00
2022-11-27T17:39:46.514Z,100339.00
2022-11-27T17:42:27.127Z,100297.00
2022-11-27T17:45:02.374Z,100381.00
2022-11-27T17:47:46.636Z,100350.00
2022-11-27T17:50:21.263Z,100335.00
2022-11-27T17:53:31.798Z,100346.00
2022-11-27T17:56:14.520Z,100315.00
2022-11-27T17:58:53.567Z,100259.00
2022-11-27T18:01:32.222Z,100340.00
2022-11-27T18:04:07.067Z,100340.00
2022-11-27T18:06:42.420Z,100324.00
2022-11-27T18:09:19.541Z,100307.00
2022-11-27T18:12:09.765Z,100331.00
2022-11-27T18:14:46.716Z,100275.00
2022-11-27T18:17:22.447Z,100307.00
2022-11-27T18:20:10.312Z,100303.00
2022-11-27T18:22:48.485Z,100295.00
2022-11-27T18:25:26.395Z,100313.00
2022-11-27T18:28:01.123Z,100321.00
2022-11-27T18:30:40.878Z,100285.00
2022-11-27T18:33:21.909Z,100318.00
2022-11-27T18:36:02.633Z,100314.00
2022-11-27T18:39:34.788Z,100268.00
2022-11-27T18:42:40.856Z,100273.00
2022-11-27T18:45:40.717Z,100257.00
2022-11-27T18:48:44.774Z,100264.00
2022-11-27T18:51:39.173Z,100159.00
2022-11-27T18:54:39.928Z,100252.00
2022-11-27T18:57:40.139Z,100251.00
2022-11-27T19:04:06.688Z,100253.00
2022-11-27T19:10:20.116Z,100196.00
2022-11-27T19:13:17.535Z,100257.00
2022-11-27T19:20:54.546Z,100166.00
2022-11-27T19:23:53.531Z,100206.00
2022-11-27T19:27:10.220Z,100244.00
2022-11-27T19:40:57.534Z,100230.00
2022-11-27T19:44:51.579Z,100241.00
2022-11-27T19:47:34.123Z,100186.00
2022-11-27T19:53:48.684Z,100227.00
2022-11-27T19:56:28.323Z,100225.00
2022-11-27T19:59:07.178Z,100161.00
2022-11-27T20:02:04.083Z,100188.00
2022-11-27T20:04:47.547Z,100158.00
2022-11-27T20:07:51.920Z,100216.00
2022-11-27T20:10:36.688Z,100203.00
2022-11-27T20:14:10.745Z,100151.00
2022-11-27T20:20:43.653Z,100208.00
2022-11-27T20:23:18.650Z,100165.00
2022-11-27T20:25:54.131Z,100140.00
2022-11-27T20:28:49.806Z,100106.00
2022-11-27T20:31:32.601Z,100114.00
2022-11-27T20:34:11.098Z,100191.00
2022-11-27T20:36:52.171Z,100183.00
2022-11-27T20:39:28.728Z,100158.00
2022-11-27T20:42:04.698Z,100151.00
2022-11-27T20:45:30.402Z,100172.00
2022-11-27T20:48:24.076Z,100163.00
2022-11-27T20:51:11.513Z,100150.00
2022-11-27T20:53:49.616Z,100112.00
2022-11-27T20:56:29.066Z,100157.00
2022-11-27T20:59:11.303Z,100159.00
2022-11-27T21:01:47.740Z,100161.00
2022-11-27T21:04:29.827Z,100117.00
2022-11-27T21:07:21.173Z,100150.00
2022-11-27T21:10:20.840Z,100156.00
2022-11-27T21:13:07.043Z,100086.00
2022-11-27T21:16:39.240Z,100153.00
2022-11-27T21:19:58.670Z,100132.00
2022-11-27T21:27:08.491Z,100111.00
2022-11-27T21:30:59.452Z,100153.00
2022-11-27T21:34:15.734Z,100101.00
2022-11-27T21:38:13.215Z,100106.00
2022-11-27T21:41:38.221Z,100084.00
2022-11-27T21:45:11.239Z,100116.00
2022-11-27T21:48:37.381Z,100108.00
2022-11-27T21:52:00.794Z,100093.00
2022-11-27T21:54:53.096Z,100075.00
2022-11-27T21:57:36.161Z,100020.00
2022-11-27T22:00:33.486Z,100017.00
2022-11-27T22:03:36.564Z,100073.00
2022-11-27T22:06:27.408Z,100020.00
2022-11-27T22:09:02.167Z,100032.00
2022-11-27T22:11:44.020Z,100049.00
2022-11-27T22:14:32.724Z,100083.00
2022-11-27T22:17:10.163Z,100087.00
2022-11-27T22:19:46.469Z,100013.00
2022-11-27T22:23:15.459Z,100016.00
2022-11-27T22:27:28.075Z,100006.00
2022-11-27T22:30:54.792Z,99977.00
2022-11-27T22:39:24.045Z,100059.00
2022-11-27T22:43:29.046Z,100058.00
2022-11-27T22:46:53.325Z,100031.00
2022-11-27T22:54:00.803Z,100051.00
2022-11-27T22:56:52.416Z,100015.00
2022-11-27T23:00:27.147Z,100063.00
2022-11-27T23:03:43.968Z,100041.00
2022-11-27T23:07:14.935Z,100063.00
2022-11-27T23:10:50.574Z,100050.00
2022-11-27T23:17:49.096Z,100018.00
2022-11-27T23:20:24.832Z,100027.00
2022-11-27T23:23:06.012Z,100015.00
2022-11-27T23:25:41.147Z,100011.00
2022-11-27T23:28:15.030Z,100029.00
2022-11-27T23:31:53.111Z,100009.00
2022-11-27T23:35:01.665Z,99998.00
2022-11-27T23:38:22.589Z,99994.00
2022-11-27T23:42:05.144Z,99958.00
2022-11-27T23:45:36.025Z,99996.00
2022-11-27T23:48:43.027Z,99969.00
2022-11-27T23:51:26.363Z,99978.00
2022-11-27T23:56:54.565Z,100003.00
2022-11-27T23:59:36.342Z,99982.00
